sensor_id;sensor_type;location;lat;lon;timestamp;P1;durP1;ratioP1;P2;durP2;ratioP2
14778;SDS011;7481;53.750;10.570;2024-03-29T00:00:26;2.93;;;1.80;;
14778;SDS011;7481;53.750;10.570;2024-03-29T00:04:48;3.53;;;2.37;;
14778;SDS011;7481;53.750;10.570;2024-03-29T00:09:12;5.30;;;1.77;;
14778;SDS011;7481;53.750;10.570;2024-03-29T00:13:35;3.77;;;1.90;;
14778;SDS011;7481;53.750;10.570;2024-03-29T00:18:00;3.50;;;1.60;;
14778;SDS011;7481;53.750;10.570;2024-03-29T00:22:42;5.53;;;2.07;;
14778;SDS011;7481;53.750;10.570;2024-03-29T00:27:14;4.10;;;1.60;;
14778;SDS011;7481;53.750;10.570;2024-03-29T00:32:00;2.80;;;2.33;;
14778;SDS011;7481;53.750;10.570;2024-03-29T00:36:22;3.17;;;2.73;;
14778;SDS011;7481;53.750;10.570;2024-03-29T00:40:51;4.13;;;1.50;;
14778;SDS011;7481;53.750;10.570;2024-03-29T00:45:26;3.13;;;1.50;;
14778;SDS011;7481;53.750;10.570;2024-03-29T00:50:02;4.37;;;1.80;;
14778;SDS011;7481;53.750;10.570;2024-03-29T00:54:36;2.30;;;1.47;;
14778;SDS011;7481;53.750;10.570;2024-03-29T00:59:13;3.93;;;1.63;;
14778;SDS011;7481;53.750;10.570;2024-03-29T01:03:40;2.30;;;1.40;;
14778;SDS011;7481;53.750;10.570;2024-03-29T01:08:16;2.93;;;1.30;;
14778;SDS011;7481;53.750;10.570;2024-03-29T01:12:47;4.07;;;1.50;;
14778;SDS011;7481;53.750;10.570;2024-03-29T01:17:29;2.57;;;1.70;;
14778;SDS011;7481;53.750;10.570;2024-03-29T01:22:10;1.73;;;1.47;;
14778;SDS011;7481;53.750;10.570;2024-03-29T01:26:40;3.33;;;1.80;;
14778;SDS011;7481;53.750;10.570;2024-03-29T01:31:09;3.03;;;1.60;;
14778;SDS011;7481;53.750;10.570;2024-03-29T01:35:43;2.80;;;1.73;;
14778;SDS011;7481;53.750;10.570;2024-03-29T01:40:34;1.83;;;1.33;;
14778;SDS011;7481;53.750;10.570;2024-03-29T01:45:14;1.93;;;1.37;;
14778;SDS011;7481;53.750;10.570;2024-03-29T01:50:01;2.87;;;2.10;;
14778;SDS011;7481;53.750;10.570;2024-03-29T01:54:30;2.90;;;1.33;;
14778;SDS011;7481;53.750;10.570;2024-03-29T01:59:06;2.53;;;1.47;;
14778;SDS011;7481;53.750;10.570;2024-03-29T02:03:44;2.50;;;1.53;;
14778;SDS011;7481;53.750;10.570;2024-03-29T02:08:09;4.37;;;1.87;;
14778;SDS011;7481;53.750;10.570;2024-03-29T02:12:31;3.00;;;1.47;;
14778;SDS011;7481;53.750;10.570;2024-03-29T02:16:53;3.87;;;2.00;;
14778;SDS011;7481;53.750;10.570;2024-03-29T02:21:22;10.17;;;3.10;;
14778;SDS011;7481;53.750;10.570;2024-03-29T02:26:04;1.60;;;1.50;;
14778;SDS011;7481;53.750;10.570;2024-03-29T02:30:31;3.77;;;1.50;;
14778;SDS011;7481;53.750;10.570;2024-03-29T02:35:12;3.33;;;1.47;;
14778;SDS011;7481;53.750;10.570;2024-03-29T02:39:38;2.60;;;1.70;;
14778;SDS011;7481;53.750;10.570;2024-03-29T02:44:15;2.67;;;2.13;;
14778;SDS011;7481;53.750;10.570;2024-03-29T02:48:43;4.53;;;2.17;;
14778;SDS011;7481;53.750;10.570;2024-03-29T02:53:15;4.17;;;2.97;;
14778;SDS011;7481;53.750;10.570;2024-03-29T02:57:54;3.77;;;1.60;;
14778;SDS011;7481;53.750;10.570;2024-03-29T03:02:44;2.33;;;1.40;;
14778;SDS011;7481;53.750;10.570;2024-03-29T03:07:09;3.93;;;1.60;;
14778;SDS011;7481;53.750;10.570;2024-03-29T03:11:59;3.23;;;1.40;;
14778;SDS011;7481;53.750;10.570;2024-03-29T03:16:38;3.40;;;1.43;;
14778;SDS011;7481;53.750;10.570;2024-03-29T03:21:11;1.87;;;1.40;;
14778;SDS011;7481;53.750;10.570;2024-03-29T03:25:56;1.50;;;1.40;;
14778;SDS011;7481;53.750;10.570;2024-03-29T03:30:21;2.00;;;1.30;;
14778;SDS011;7481;53.750;10.570;2024-03-29T03:35:07;2.30;;;1.30;;
14778;SDS011;7481;53.750;10.570;2024-03-29T03:39:39;4.57;;;1.90;;
14778;SDS011;7481;53.750;10.570;2024-03-29T03:44:44;3.33;;;1.43;;
14778;SDS011;7481;53.750;10.570;2024-03-29T03:49:15;12.07;;;5.97;;
14778;SDS011;7481;53.750;10.570;2024-03-29T03:53:55;4.93;;;2.00;;
14778;SDS011;7481;53.750;10.570;2024-03-29T03:58:20;7.87;;;4.40;;
14778;SDS011;7481;53.750;10.570;2024-03-29T04:02:46;4.73;;;2.20;;
14778;SDS011;7481;53.750;10.570;2024-03-29T04:07:25;3.30;;;1.60;;
14778;SDS011;7481;53.750;10.570;2024-03-29T04:11:50;4.40;;;1.90;;
14778;SDS011;7481;53.750;10.570;2024-03-29T04:16:34;2.83;;;1.70;;
14778;SDS011;7481;53.750;10.570;2024-03-29T04:21:13;4.33;;;2.43;;
14778;SDS011;7481;53.750;10.570;2024-03-29T04:25:54;2.17;;;1.50;;
14778;SDS011;7481;53.750;10.570;2024-03-29T04:30:38;2.53;;;1.80;;
14778;SDS011;7481;53.750;10.570;2024-03-29T04:35:24;4.17;;;1.77;;
14778;SDS011;7481;53.750;10.570;2024-03-29T04:39:55;3.63;;;1.40;;
14778;SDS011;7481;53.750;10.570;2024-03-29T04:44:39;3.33;;;1.90;;
14778;SDS011;7481;53.750;10.570;2024-03-29T04:49:40;4.33;;;1.60;;
14778;SDS011;7481;53.750;10.570;2024-03-29T04:54:14;4.90;;;1.83;;
14778;SDS011;7481;53.750;10.570;2024-03-29T04:58:39;3.80;;;1.70;;
14778;SDS011;7481;53.750;10.570;2024-03-29T05:03:03;2.63;;;1.57;;
14778;SDS011;7481;53.750;10.570;2024-03-29T05:07:26;1.97;;;1.43;;
14778;SDS011;7481;53.750;10.570;2024-03-29T05:11:49;2.97;;;1.80;;
14778;SDS011;7481;53.750;10.570;2024-03-29T05:16:14;3.27;;;1.77;;
14778;SDS011;7481;53.750;10.570;2024-03-29T05:20:38;5.17;;;1.90;;
14778;SDS011;7481;53.750;10.570;2024-03-29T05:25:08;2.90;;;1.40;;
14778;SDS011;7481;53.750;10.570;2024-03-29T05:29:32;4.57;;;1.73;;
14778;SDS011;7481;53.750;10.570;2024-03-29T05:34:11;3.10;;;1.50;;
14778;SDS011;7481;53.750;10.570;2024-03-29T05:38:51;4.00;;;1.60;;
14778;SDS011;7481;53.750;10.570;2024-03-29T05:43:26;2.00;;;1.33;;
14778;SDS011;7481;53.750;10.570;2024-03-29T05:47:48;2.20;;;1.40;;
14778;SDS011;7481;53.750;10.570;2024-03-29T05:52:10;2.50;;;1.80;;
14778;SDS011;7481;53.750;10.570;2024-03-29T05:56:36;2.73;;;1.40;;
14778;SDS011;7481;53.750;10.570;2024-03-29T06:01:06;1.93;;;1.40;;
14778;SDS011;7481;53.750;10.570;2024-03-29T06:05:31;3.07;;;1.40;;
14778;SDS011;7481;53.750;10.570;2024-03-29T06:09:54;2.93;;;1.23;;
14778;SDS011;7481;53.750;10.570;2024-03-29T06:14:17;3.53;;;1.50;;
14778;SDS011;7481;53.750;10.570;2024-03-29T06:19:01;3.03;;;1.50;;
14778;SDS011;7481;53.750;10.570;2024-03-29T06:23:28;2.03;;;1.30;;
14778;SDS011;7481;53.750;10.570;2024-03-29T06:28:03;4.57;;;1.67;;
14778;SDS011;7481;53.750;10.570;2024-03-29T06:32:31;3.97;;;1.43;;
14778;SDS011;7481;53.750;10.570;2024-03-29T06:36:55;10.97;;;5.43;;
14778;SDS011;7481;53.750;10.570;2024-03-29T06:41:20;2.47;;;1.50;;
14778;SDS011;7481;53.750;10.570;2024-03-29T06:46:02;2.23;;;1.50;;
14778;SDS011;7481;53.750;10.570;2024-03-29T06:50:31;5.27;;;1.43;;
14778;SDS011;7481;53.750;10.570;2024-03-29T06:55:11;3.43;;;1.40;;
14778;SDS011;7481;53.750;10.570;2024-03-29T06:59:39;2.93;;;1.43;;
14778;SDS011;7481;53.750;10.570;2024-03-29T07:04:08;3.87;;;1.40;;
14778;SDS011;7481;53.750;10.570;2024-03-29T07:08:32;3.60;;;1.60;;
14778;SDS011;7481;53.750;10.570;2024-03-29T07:13:11;3.63;;;1.60;;
14778;SDS011;7481;53.750;10.570;2024-03-29T07:17:44;4.03;;;1.30;;
14778;SDS011;7481;53.750;10.570;2024-03-29T07:22:12;2.87;;;1.20;;
14778;SDS011;7481;53.750;10.570;2024-03-29T07:26:37;2.10;;;1.40;;
14778;SDS011;7481;53.750;10.570;2024-03-29T07:31:07;4.40;;;1.57;;
14778;SDS011;7481;53.750;10.570;2024-03-29T07:35:29;3.83;;;1.83;;
14778;SDS011;7481;53.750;10.570;2024-03-29T07:39:57;3.00;;;1.10;;
14778;SDS011;7481;53.750;10.570;2024-03-29T07:44:28;1.60;;;1.33;;
14778;SDS011;7481;53.750;10.570;2024-03-29T07:48:50;3.83;;;1.53;;
14778;SDS011;7481;53.750;10.570;2024-03-29T07:53:13;3.92;;;1.75;;
14778;SDS011;7481;53.750;10.570;2024-03-29T07:57:37;4.00;;;1.40;;
14778;SDS011;7481;53.750;10.570;2024-03-29T08:02:00;4.50;;;1.60;;
14778;SDS011;7481;53.750;10.570;2024-03-29T08:06:23;5.17;;;3.37;;
14778;SDS011;7481;53.750;10.570;2024-03-29T08:10:46;12.53;;;5.67;;
14778;SDS011;7481;53.750;10.570;2024-03-29T08:15:16;4.33;;;2.43;;
14778;SDS011;7481;53.750;10.570;2024-03-29T08:19:44;2.30;;;1.23;;
14778;SDS011;7481;53.750;10.570;2024-03-29T08:24:08;2.93;;;1.20;;
14778;SDS011;7481;53.750;10.570;2024-03-29T08:28:46;1.63;;;1.10;;
14778;SDS011;7481;53.750;10.570;2024-03-29T08:33:09;2.20;;;1.07;;
14778;SDS011;7481;53.750;10.570;2024-03-29T08:37:32;2.47;;;1.57;;
14778;SDS011;7481;53.750;10.570;2024-03-29T08:41:56;3.63;;;1.50;;
14778;SDS011;7481;53.750;10.570;2024-03-29T08:46:19;5.00;;;1.20;;
14778;SDS011;7481;53.750;10.570;2024-03-29T08:50:42;3.20;;;1.50;;
14778;SDS011;7481;53.750;10.570;2024-03-29T08:55:09;2.07;;;1.07;;
14778;SDS011;7481;53.750;10.570;2024-03-29T08:59:30;1.80;;;1.13;;
14778;SDS011;7481;53.750;10.570;2024-03-29T09:03:53;3.27;;;1.50;;
14778;SDS011;7481;53.750;10.570;2024-03-29T09:08:24;2.30;;;1.37;;
14778;SDS011;7481;53.750;10.570;2024-03-29T09:12:47;5.47;;;2.03;;
14778;SDS011;7481;53.750;10.570;2024-03-29T09:17:11;2.77;;;1.50;;
14778;SDS011;7481;53.750;10.570;2024-03-29T09:21:40;2.17;;;1.37;;
14778;SDS011;7481;53.750;10.570;2024-03-29T09:26:07;3.63;;;1.13;;
14778;SDS011;7481;53.750;10.570;2024-03-29T09:30:32;2.20;;;1.43;;
14778;SDS011;7481;53.750;10.570;2024-03-29T09:35:00;3.93;;;1.53;;
14778;SDS011;7481;53.750;10.570;2024-03-29T09:39:24;7.77;;;3.77;;
14778;SDS011;7481;53.750;10.570;2024-03-29T09:43:46;8.10;;;4.13;;
14778;SDS011;7481;53.750;10.570;2024-03-29T09:48:08;5.80;;;2.80;;
14778;SDS011;7481;53.750;10.570;2024-03-29T09:52:32;4.67;;;1.60;;
14778;SDS011;7481;53.750;10.570;2024-03-29T09:56:56;3.27;;;1.70;;
14778;SDS011;7481;53.750;10.570;2024-03-29T10:01:19;1.80;;;1.03;;
14778;SDS011;7481;53.750;10.570;2024-03-29T10:05:47;3.93;;;1.40;;
14778;SDS011;7481;53.750;10.570;2024-03-29T10:10:12;3.17;;;1.60;;
14778;SDS011;7481;53.750;10.570;2024-03-29T10:14:48;2.33;;;1.77;;
14778;SDS011;7481;53.750;10.570;2024-03-29T10:19:19;1.97;;;1.47;;
14778;SDS011;7481;53.750;10.570;2024-03-29T10:23:43;4.30;;;2.00;;
14778;SDS011;7481;53.750;10.570;2024-03-29T10:28:08;3.87;;;1.80;;
14778;SDS011;7481;53.750;10.570;2024-03-29T10:32:30;6.60;;;2.40;;
14778;SDS011;7481;53.750;10.570;2024-03-29T10:36:55;2.30;;;1.90;;
14778;SDS011;7481;53.750;10.570;2024-03-29T10:41:19;3.83;;;1.80;;
14778;SDS011;7481;53.750;10.570;2024-03-29T10:45:48;4.03;;;1.50;;
14778;SDS011;7481;53.750;10.570;2024-03-29T10:50:37;5.90;;;2.00;;
14778;SDS011;7481;53.750;10.570;2024-03-29T10:55:00;5.90;;;1.60;;
14778;SDS011;7481;53.750;10.570;2024-03-29T10:59:28;1.73;;;1.30;;
14778;SDS011;7481;53.750;10.570;2024-03-29T11:03:54;3.67;;;1.10;;
14778;SDS011;7481;53.750;10.570;2024-03-29T11:08:23;3.13;;;1.57;;
14778;SDS011;7481;53.750;10.570;2024-03-29T11:17:33;2.03;;;1.40;;
14778;SDS011;7481;53.750;10.570;2024-03-29T11:21:57;5.43;;;2.00;;
14778;SDS011;7481;53.750;10.570;2024-03-29T11:26:20;3.67;;;1.97;;
14778;SDS011;7481;53.750;10.570;2024-03-29T11:30:49;4.57;;;1.87;;
14778;SDS011;7481;53.750;10.570;2024-03-29T11:35:15;4.20;;;1.80;;
14778;SDS011;7481;53.750;10.570;2024-03-29T11:39:39;4.38;;;1.90;;
14778;SDS011;7481;53.750;10.570;2024-03-29T11:44:02;3.37;;;1.77;;
14778;SDS011;7481;53.750;10.570;2024-03-29T11:48:25;6.37;;;2.37;;
14778;SDS011;7481;53.750;10.570;2024-03-29T11:52:47;4.30;;;2.10;;
14778;SDS011;7481;53.750;10.570;2024-03-29T11:57:10;3.47;;;2.40;;
14778;SDS011;7481;53.750;10.570;2024-03-29T12:01:34;8.33;;;4.27;;
14778;SDS011;7481;53.750;10.570;2024-03-29T12:05:57;9.77;;;4.57;;
14778;SDS011;7481;53.750;10.570;2024-03-29T12:10:19;3.83;;;2.40;;
14778;SDS011;7481;53.750;10.570;2024-03-29T12:14:45;11.03;;;5.53;;
14778;SDS011;7481;53.750;10.570;2024-03-29T12:19:09;6.93;;;4.27;;
14778;SDS011;7481;53.750;10.570;2024-03-29T12:23:31;3.10;;;2.43;;
14778;SDS011;7481;53.750;10.570;2024-03-29T12:27:54;5.67;;;2.97;;
14778;SDS011;7481;53.750;10.570;2024-03-29T12:32:19;4.47;;;2.90;;
14778;SDS011;7481;53.750;10.570;2024-03-29T12:36:50;2.37;;;1.70;;
14778;SDS011;7481;53.750;10.570;2024-03-29T12:41:13;3.60;;;2.13;;
14778;SDS011;7481;53.750;10.570;2024-03-29T12:45:35;2.30;;;1.83;;
14778;SDS011;7481;53.750;10.570;2024-03-29T12:49:58;3.63;;;1.87;;
14778;SDS011;7481;53.750;10.570;2024-03-29T12:54:37;4.60;;;1.87;;
14778;SDS011;7481;53.750;10.570;2024-03-29T12:59:01;3.70;;;1.97;;
14778;SDS011;7481;53.750;10.570;2024-03-29T13:03:24;4.23;;;1.93;;
14778;SDS011;7481;53.750;10.570;2024-03-29T13:07:47;2.23;;;1.60;;
14778;SDS011;7481;53.750;10.570;2024-03-29T13:12:10;3.40;;;1.43;;
14778;SDS011;7481;53.750;10.570;2024-03-29T13:16:36;2.90;;;1.57;;
14778;SDS011;7481;53.750;10.570;2024-03-29T13:21:02;3.10;;;1.80;;
14778;SDS011;7481;53.750;10.570;2024-03-29T13:25:31;2.43;;;1.87;;
14778;SDS011;7481;53.750;10.570;2024-03-29T13:29:54;7.40;;;3.87;;
14778;SDS011;7481;53.750;10.570;2024-03-29T13:34:16;7.80;;;4.13;;
14778;SDS011;7481;53.750;10.570;2024-03-29T13:38:40;4.50;;;2.03;;
14778;SDS011;7481;53.750;10.570;2024-03-29T13:43:05;3.63;;;2.00;;
14778;SDS011;7481;53.750;10.570;2024-03-29T13:47:29;7.60;;;3.20;;
14778;SDS011;7481;53.750;10.570;2024-03-29T13:51:50;5.60;;;2.53;;
14778;SDS011;7481;53.750;10.570;2024-03-29T13:56:12;2.90;;;1.67;;
14778;SDS011;7481;53.750;10.570;2024-03-29T14:00:35;3.70;;;1.50;;
14778;SDS011;7481;53.750;10.570;2024-03-29T14:05:00;2.17;;;1.43;;
14778;SDS011;7481;53.750;10.570;2024-03-29T14:09:24;4.13;;;2.53;;
14778;SDS011;7481;53.750;10.570;2024-03-29T14:13:47;1.83;;;1.30;;
14778;SDS011;7481;53.750;10.570;2024-03-29T14:18:11;1.70;;;1.50;;
14778;SDS011;7481;53.750;10.570;2024-03-29T14:22:44;2.17;;;1.80;;
14778;SDS011;7481;53.750;10.570;2024-03-29T14:27:08;2.17;;;1.80;;
14778;SDS011;7481;53.750;10.570;2024-03-29T14:31:41;3.17;;;2.03;;
14778;SDS011;7481;53.750;10.570;2024-03-29T14:36:05;2.83;;;1.60;;
14778;SDS011;7481;53.750;10.570;2024-03-29T14:40:29;2.13;;;1.40;;
14778;SDS011;7481;53.750;10.570;2024-03-29T14:44:52;2.30;;;1.47;;
14778;SDS011;7481;53.750;10.570;2024-03-29T14:49:16;3.90;;;2.10;;
14778;SDS011;7481;53.750;10.570;2024-03-29T14:53:42;3.13;;;1.90;;
14778;SDS011;7481;53.750;10.570;2024-03-29T14:58:30;2.07;;;1.20;;
14778;SDS011;7481;53.750;10.570;2024-03-29T15:02:56;1.87;;;1.50;;
14778;SDS011;7481;53.750;10.570;2024-03-29T15:07:20;2.00;;;1.37;;
14778;SDS011;7481;53.750;10.570;2024-03-29T15:11:41;1.40;;;1.30;;
14778;SDS011;7481;53.750;10.570;2024-03-29T15:16:05;2.00;;;1.50;;
14778;SDS011;7481;53.750;10.570;2024-03-29T15:20:32;1.40;;;1.30;;
14778;SDS011;7481;53.750;10.570;2024-03-29T15:24:59;1.50;;;1.40;;
14778;SDS011;7481;53.750;10.570;2024-03-29T15:29:22;5.10;;;1.70;;
14778;SDS011;7481;53.750;10.570;2024-03-29T15:33:46;2.53;;;1.53;;
14778;SDS011;7481;53.750;10.570;2024-03-29T15:38:09;2.30;;;1.20;;
14778;SDS011;7481;53.750;10.570;2024-03-29T15:42:33;1.47;;;1.30;;
14778;SDS011;7481;53.750;10.570;2024-03-29T15:47:01;2.30;;;1.40;;
14778;SDS011;7481;53.750;10.570;2024-03-29T15:51:24;3.00;;;1.50;;
14778;SDS011;7481;53.750;10.570;2024-03-29T15:55:50;3.00;;;1.50;;
14778;SDS011;7481;53.750;10.570;2024-03-29T16:00:15;2.03;;;1.40;;
14778;SDS011;7481;53.750;10.570;2024-03-29T16:04:58;1.80;;;1.50;;
14778;SDS011;7481;53.750;10.570;2024-03-29T16:09:22;3.67;;;1.67;;
14778;SDS011;7481;53.750;10.570;2024-03-29T16:13:45;1.87;;;1.60;;
14778;SDS011;7481;53.750;10.570;2024-03-29T16:18:09;3.13;;;1.77;;
14778;SDS011;7481;53.750;10.570;2024-03-29T16:22:34;2.13;;;1.50;;
14778;SDS011;7481;53.750;10.570;2024-03-29T16:26:56;2.00;;;1.80;;
14778;SDS011;7481;53.750;10.570;2024-03-29T16:31:22;5.80;;;3.00;;
14778;SDS011;7481;53.750;10.570;2024-03-29T16:35:47;37.10;;;14.37;;
14778;SDS011;7481;53.750;10.570;2024-03-29T16:40:11;23.80;;;12.13;;
14778;SDS011;7481;53.750;10.570;2024-03-29T16:44:35;5.17;;;3.93;;
14778;SDS011;7481;53.750;10.570;2024-03-29T16:48:57;4.97;;;3.90;;
14778;SDS011;7481;53.750;10.570;2024-03-29T16:53:21;5.90;;;4.37;;
14778;SDS011;7481;53.750;10.570;2024-03-29T16:57:47;2.83;;;2.63;;
14778;SDS011;7481;53.750;10.570;2024-03-29T17:02:09;6.93;;;4.40;;
14778;SDS011;7481;53.750;10.570;2024-03-29T17:06:34;5.43;;;3.60;;
14778;SDS011;7481;53.750;10.570;2024-03-29T17:11:03;4.97;;;3.57;;
14778;SDS011;7481;53.750;10.570;2024-03-29T17:15:28;3.33;;;2.70;;
14778;SDS011;7481;53.750;10.570;2024-03-29T17:19:51;3.57;;;2.33;;
14778;SDS011;7481;53.750;10.570;2024-03-29T17:24:15;2.93;;;2.10;;
14778;SDS011;7481;53.750;10.570;2024-03-29T17:28:40;2.63;;;2.10;;
14778;SDS011;7481;53.750;10.570;2024-03-29T17:33:03;2.87;;;1.80;;
14778;SDS011;7481;53.750;10.570;2024-03-29T17:37:26;1.97;;;1.70;;
14778;SDS011;7481;53.750;10.570;2024-03-29T17:41:49;2.40;;;1.97;;
14778;SDS011;7481;53.750;10.570;2024-03-29T17:46:13;6.70;;;4.37;;
14778;SDS011;7481;53.750;10.570;2024-03-29T17:50:36;4.77;;;3.60;;
14778;SDS011;7481;53.750;10.570;2024-03-29T17:54:59;10.53;;;7.27;;
14778;SDS011;7481;53.750;10.570;2024-03-29T17:59:23;6.67;;;4.83;;
14778;SDS011;7481;53.750;10.570;2024-03-29T18:03:55;14.67;;;8.63;;
14778;SDS011;7481;53.750;10.570;2024-03-29T18:08:44;27.73;;;17.63;;
14778;SDS011;7481;53.750;10.570;2024-03-29T18:13:17;13.97;;;9.20;;
14778;SDS011;7481;53.750;10.570;2024-03-29T18:17:39;22.27;;;15.67;;
14778;SDS011;7481;53.750;10.570;2024-03-29T18:22:12;11.93;;;10.40;;
14778;SDS011;7481;53.750;10.570;2024-03-29T18:26:37;14.33;;;11.20;;
14778;SDS011;7481;53.750;10.570;2024-03-29T18:31:04;29.10;;;21.70;;
14778;SDS011;7481;53.750;10.570;2024-03-29T18:35:30;28.03;;;22.53;;
14778;SDS011;7481;53.750;10.570;2024-03-29T18:39:58;13.20;;;8.97;;
14778;SDS011;7481;53.750;10.570;2024-03-29T18:44:23;5.37;;;3.90;;
14778;SDS011;7481;53.750;10.570;2024-03-29T18:48:50;11.73;;;9.80;;
14778;SDS011;7481;53.750;10.570;2024-03-29T18:53:15;8.40;;;6.37;;
14778;SDS011;7481;53.750;10.570;2024-03-29T18:57:39;3.33;;;3.00;;
14778;SDS011;7481;53.750;10.570;2024-03-29T19:02:08;3.50;;;3.20;;
14778;SDS011;7481;53.750;10.570;2024-03-29T19:06:36;7.43;;;3.73;;
14778;SDS011;7481;53.750;10.570;2024-03-29T19:20:25;60.87;;;39.03;;
14778;SDS011;7481;53.750;10.570;2024-03-29T19:24:54;10.70;;;7.63;;
14778;SDS011;7481;53.750;10.570;2024-03-29T19:29:20;10.70;;;8.23;;
14778;SDS011;7481;53.750;10.570;2024-03-29T19:33:44;10.07;;;7.33;;
14778;SDS011;7481;53.750;10.570;2024-03-29T19:38:12;20.70;;;12.57;;
14778;SDS011;7481;53.750;10.570;2024-03-29T19:42:38;40.60;;;21.90;;
14778;SDS011;7481;53.750;10.570;2024-03-29T19:47:05;46.43;;;23.20;;
14778;SDS011;7481;53.750;10.570;2024-03-29T19:51:31;30.23;;;17.03;;
14778;SDS011;7481;53.750;10.570;2024-03-29T19:56:01;14.97;;;12.00;;
14778;SDS011;7481;53.750;10.570;2024-03-29T20:00:29;13.17;;;11.47;;
14778;SDS011;7481;53.750;10.570;2024-03-29T20:04:54;8.40;;;6.60;;
14778;SDS011;7481;53.750;10.570;2024-03-29T20:09:19;6.10;;;5.07;;
14778;SDS011;7481;53.750;10.570;2024-03-29T20:13:54;6.07;;;5.47;;
14778;SDS011;7481;53.750;10.570;2024-03-29T20:18:16;4.93;;;4.40;;
14778;SDS011;7481;53.750;10.570;2024-03-29T20:22:45;11.80;;;7.67;;
14778;SDS011;7481;53.750;10.570;2024-03-29T20:27:10;8.47;;;6.77;;
14778;SDS011;7481;53.750;10.570;2024-03-29T20:31:35;7.53;;;6.53;;
14778;SDS011;7481;53.750;10.570;2024-03-29T20:36:12;8.87;;;6.57;;
14778;SDS011;7481;53.750;10.570;2024-03-29T20:40:50;8.07;;;6.30;;
14778;SDS011;7481;53.750;10.570;2024-03-29T20:45:16;10.00;;;6.47;;
14778;SDS011;7481;53.750;10.570;2024-03-29T20:49:44;18.80;;;13.10;;
14778;SDS011;7481;53.750;10.570;2024-03-29T20:54:10;10.80;;;6.70;;
14778;SDS011;7481;53.750;10.570;2024-03-29T20:58:36;6.83;;;4.97;;
14778;SDS011;7481;53.750;10.570;2024-03-29T21:03:02;5.80;;;4.73;;
14778;SDS011;7481;53.750;10.570;2024-03-29T21:07:45;7.07;;;6.33;;
14778;SDS011;7481;53.750;10.570;2024-03-29T21:12:12;9.83;;;8.83;;
14778;SDS011;7481;53.750;10.570;2024-03-29T21:16:44;9.50;;;7.50;;
14778;SDS011;7481;53.750;10.570;2024-03-29T21:21:10;10.23;;;7.77;;
14778;SDS011;7481;53.750;10.570;2024-03-29T21:25:43;8.30;;;6.47;;
14778;SDS011;7481;53.750;10.570;2024-03-29T21:30:32;5.37;;;4.47;;
14778;SDS011;7481;53.750;10.570;2024-03-29T21:34:59;7.83;;;5.70;;
14778;SDS011;7481;53.750;10.570;2024-03-29T21:39:25;7.87;;;5.37;;
14778;SDS011;7481;53.750;10.570;2024-03-29T21:43:47;5.93;;;4.63;;
14778;SDS011;7481;53.750;10.570;2024-03-29T21:48:14;5.87;;;4.73;;
14778;SDS011;7481;53.750;10.570;2024-03-29T21:52:47;4.83;;;4.13;;
14778;SDS011;7481;53.750;10.570;2024-03-29T21:57:17;5.57;;;4.57;;
14778;SDS011;7481;53.750;10.570;2024-03-29T22:01:54;7.60;;;5.53;;
14778;SDS011;7481;53.750;10.570;2024-03-29T22:06:19;6.00;;;4.73;;
14778;SDS011;7481;53.750;10.570;2024-03-29T22:10:45;7.73;;;5.73;;
14778;SDS011;7481;53.750;10.570;2024-03-29T22:15:16;23.20;;;13.50;;
14778;SDS011;7481;53.750;10.570;2024-03-29T22:19:43;18.57;;;11.60;;
14778;SDS011;7481;53.750;10.570;2024-03-29T22:24:06;15.30;;;8.57;;
14778;SDS011;7481;53.750;10.570;2024-03-29T22:28:36;5.67;;;4.37;;
14778;SDS011;7481;53.750;10.570;2024-03-29T22:33:07;7.13;;;5.20;;
14778;SDS011;7481;53.750;10.570;2024-03-29T22:37:43;6.10;;;4.63;;
14778;SDS011;7481;53.750;10.570;2024-03-29T22:42:30;5.80;;;4.40;;
14778;SDS011;7481;53.750;10.570;2024-03-29T22:46:58;6.23;;;4.40;;
14778;SDS011;7481;53.750;10.570;2024-03-29T22:51:29;4.63;;;4.00;;
14778;SDS011;7481;53.750;10.570;2024-03-29T22:56:04;5.47;;;4.40;;
14778;SDS011;7481;53.750;10.570;2024-03-29T23:00:33;7.70;;;4.40;;
14778;SDS011;7481;53.750;10.570;2024-03-29T23:04:59;3.97;;;3.40;;
14778;SDS011;7481;53.750;10.570;2024-03-29T23:09:25;4.10;;;3.37;;
14778;SDS011;7481;53.750;10.570;2024-03-29T23:13:59;6.67;;;4.07;;
14778;SDS011;7481;53.750;10.570;2024-03-29T23:18:27;6.70;;;3.63;;
14778;SDS011;7481;53.750;10.570;2024-03-29T23:22:55;5.37;;;3.77;;
14778;SDS011;7481;53.750;10.570;2024-03-29T23:27:33;4.10;;;3.20;;
14778;SDS011;7481;53.750;10.570;2024-03-29T23:32:01;5.33;;;3.40;;
14778;SDS011;7481;53.750;10.570;2024-03-29T23:36:25;4.73;;;3.90;;
14778;SDS011;7481;53.750;10.570;2024-03-29T23:41:05;4.67;;;3.27;;
14778;SDS011;7481;53.750;10.570;2024-03-29T23:45:34;3.47;;;3.10;;
14778;SDS011;7481;53.750;10.570;2024-03-29T23:50:04;3.93;;;3.03;;
14778;SDS011;7481;53.750;10.570;2024-03-29T23:54:40;4.00;;;3.23;;
14778;SDS011;7481;53.750;10.570;2024-03-29T23:59:10;4.07;;;3.30;;
